BAW2718 EGKK-LPMA
Flight info
| Callsign | BAW2718 |
|---|---|
| Flight time | 3h 32m |
| Altitude | 35000 |
| Route | NOVMA L620 SAM M195 LORKU DCT EBOMO DCT COQUE DCT KORUL DCT AGADO DCT LAMDI/N0444F370 DCT VABEM DCT LIDRO |
| Aircraft | A320/M-SDE3FGHIRWY/LB1 |
Departure
| Time | 2026-04-15 13:15 |
|---|---|
| Airport | London Gatwick Airport (EGKK) |
Arrival
| Time | 2026-04-15 16:48 |
|---|---|
| Airport | Cristiano Ronaldo International Airport (LPMA) |
| Time | Latitude | Longitude | Altitude | Speed | Heading |
|---|---|---|---|---|---|
| 2026-04-15 12:20 | 51.15899 | -0.16843 | 204 ft | 0 kts | 141° |
| 2026-04-15 12:58 | 51.15900 | -0.16844 | 203 ft | 1 kts | 141° |
| 2026-04-15 12:59 | 51.15929 | -0.16878 | 210 ft | 3 kts | 150° |
| 2026-04-15 12:59 | 51.15946 | -0.16891 | 216 ft | 3 kts | 174° |
| 2026-04-15 12:59 | 51.15961 | -0.16889 | 214 ft | 1 kts | 216° |
| 2026-04-15 13:00 | 51.15971 | -0.16877 | 214 ft | 3 kts | 224° |
| 2026-04-15 13:00 | 51.15982 | -0.16854 | 215 ft | 3 kts | 257° |
| 2026-04-15 13:00 | 51.15982 | -0.16824 | 216 ft | 3 kts | 286° |
| 2026-04-15 13:00 | 51.15977 | -0.16797 | 214 ft | 2 kts | 278° |
| 2026-04-15 13:01 | 51.15977 | -0.16792 | 213 ft | 0 kts | 276° |
| 2026-04-15 13:03 | 51.15977 | -0.16797 | 214 ft | 1 kts | 276° |
| 2026-04-15 13:03 | 51.15979 | -0.16832 | 216 ft | 5 kts | 274° |
| 2026-04-15 13:04 | 51.15974 | -0.16907 | 214 ft | 9 kts | 258° |
| 2026-04-15 13:04 | 51.15940 | -0.17003 | 211 ft | 11 kts | 227° |
| 2026-04-15 13:04 | 51.15877 | -0.17068 | 213 ft | 12 kts | 200° |
| 2026-04-15 13:04 | 51.15794 | -0.17075 | 204 ft | 11 kts | 175° |
| 2026-04-15 13:05 | 51.15712 | -0.17045 | 204 ft | 11 kts | 167° |
| 2026-04-15 13:05 | 51.15651 | -0.17043 | 212 ft | 9 kts | 218° |
| 2026-04-15 13:05 | 51.15629 | -0.17153 | 209 ft | 12 kts | 257° |
| 2026-04-15 13:05 | 51.15610 | -0.17281 | 207 ft | 11 kts | 254° |
| 2026-04-15 13:06 | 51.15596 | -0.17362 | 207 ft | 7 kts | 256° |
| 2026-04-15 13:06 | 51.15589 | -0.17404 | 214 ft | 2 kts | 256° |
| 2026-04-15 13:06 | 51.15576 | -0.17432 | 207 ft | 4 kts | 220° |
| 2026-04-15 13:06 | 51.15539 | -0.17435 | 205 ft | 7 kts | 167° |
| 2026-04-15 13:07 | 51.15480 | -0.17415 | 205 ft | 10 kts | 169° |
| 2026-04-15 13:07 | 51.15402 | -0.17389 | 205 ft | 12 kts | 166° |
| 2026-04-15 13:07 | 51.15308 | -0.17355 | 210 ft | 15 kts | 167° |
| 2026-04-15 13:07 | 51.15235 | -0.17300 | 206 ft | 13 kts | 143° |
| 2026-04-15 13:08 | 51.15182 | -0.17223 | 207 ft | 10 kts | 111° |
| 2026-04-15 13:08 | 51.15194 | -0.17105 | 202 ft | 12 kts | 76° |
| 2026-04-15 13:08 | 51.15204 | -0.17031 | 209 ft | 0 kts | 78° |
| 2026-04-15 13:08 | 51.15204 | -0.17030 | 201 ft | 0 kts | 78° |
| 2026-04-15 13:09 | 51.15206 | -0.17022 | 201 ft | 3 kts | 78° |
| 2026-04-15 13:09 | 51.15207 | -0.17012 | 211 ft | 0 kts | 78° |
| 2026-04-15 13:10 | 51.15208 | -0.17006 | 209 ft | 3 kts | 78° |
| 2026-04-15 13:10 | 51.15216 | -0.16947 | 201 ft | 8 kts | 78° |
| 2026-04-15 13:10 | 51.15225 | -0.16864 | 201 ft | 4 kts | 88° |
| 2026-04-15 13:11 | 51.15224 | -0.16855 | 201 ft | 0 kts | 101° |
| 2026-04-15 13:13 | 51.15223 | -0.16851 | 206 ft | 1 kts | 101° |
| 2026-04-15 13:13 | 51.15213 | -0.16816 | 210 ft | 5 kts | 135° |
| 2026-04-15 13:13 | 51.15165 | -0.16787 | 206 ft | 9 kts | 168° |
| 2026-04-15 13:13 | 51.15123 | -0.16779 | 198 ft | 4 kts | 199° |
| 2026-04-15 13:14 | 51.15118 | -0.16803 | 207 ft | 0 kts | 256° |
| 2026-04-15 13:14 | 51.15118 | -0.16806 | 207 ft | 2 kts | 256° |
| 2026-04-15 13:14 | 51.15090 | -0.17002 | 200 ft | 45 kts | 257° |
| 2026-04-15 13:15 | 51.14976 | -0.17823 | 209 ft | 104 kts | 258° |
| 2026-04-15 13:15 | 51.14787 | -0.19198 | 208 ft | 149 kts | 258° |
| 2026-04-15 13:15 | 51.14562 | -0.20889 | 615 ft | 151 kts | 257° |
| 2026-04-15 13:15 | 51.14356 | -0.22480 | 1282 ft | 145 kts | 249° |
| 2026-04-15 13:16 | 51.14125 | -0.24098 | 1759 ft | 157 kts | 250° |
| 2026-04-15 13:16 | 51.13861 | -0.25911 | 1988 ft | 179 kts | 251° |
| 2026-04-15 13:16 | 51.13563 | -0.27977 | 2210 ft | 204 kts | 252° |
| 2026-04-15 13:16 | 51.13231 | -0.30300 | 2550 ft | 226 kts | 253° |
| 2026-04-15 13:17 | 51.12885 | -0.32785 | 3315 ft | 232 kts | 253° |
| 2026-04-15 13:17 | 51.12539 | -0.35318 | 3837 ft | 235 kts | 253° |
| 2026-04-15 13:17 | 51.12193 | -0.37863 | 3973 ft | 235 kts | 253° |
| 2026-04-15 13:17 | 51.11845 | -0.40406 | 4006 ft | 234 kts | 253° |
| 2026-04-15 13:18 | 51.11466 | -0.42918 | 4009 ft | 232 kts | 246° |
| 2026-04-15 13:18 | 51.10781 | -0.45231 | 4011 ft | 231 kts | 241° |
| 2026-04-15 13:18 | 51.10070 | -0.47513 | 4009 ft | 230 kts | 241° |
| 2026-04-15 13:18 | 51.09596 | -0.49032 | 4011 ft | 232 kts | 241° |
| 2026-04-15 13:19 | 51.08869 | -0.51363 | 4010 ft | 232 kts | 241° |
| 2026-04-15 13:19 | 51.08152 | -0.53663 | 4009 ft | 232 kts | 241° |
| 2026-04-15 13:19 | 51.07434 | -0.55959 | 3996 ft | 230 kts | 241° |
| 2026-04-15 13:19 | 51.06722 | -0.58239 | 3996 ft | 230 kts | 241° |
| 2026-04-15 13:20 | 51.06019 | -0.60489 | 3995 ft | 230 kts | 241° |
| 2026-04-15 13:20 | 51.05369 | -0.62831 | 3995 ft | 234 kts | 250° |
| 2026-04-15 13:20 | 51.05013 | -0.65365 | 3995 ft | 235 kts | 254° |
| 2026-04-15 13:20 | 51.04677 | -0.67914 | 3992 ft | 235 kts | 254° |
| 2026-04-15 13:21 | 51.04338 | -0.70451 | 3994 ft | 234 kts | 253° |
| 2026-04-15 13:21 | 51.03998 | -0.72972 | 3994 ft | 234 kts | 253° |
| 2026-04-15 13:21 | 51.03654 | -0.75500 | 3995 ft | 234 kts | 253° |
| 2026-04-15 13:21 | 51.03311 | -0.78021 | 3991 ft | 234 kts | 253° |
| 2026-04-15 13:22 | 51.02968 | -0.80555 | 3988 ft | 234 kts | 253° |
| 2026-04-15 13:22 | 51.02625 | -0.83081 | 3988 ft | 233 kts | 253° |
| 2026-04-15 13:22 | 51.02282 | -0.85592 | 3991 ft | 233 kts | 253° |
| 2026-04-15 13:22 | 51.01934 | -0.88132 | 4219 ft | 239 kts | 253° |
| 2026-04-15 13:23 | 51.01583 | -0.90699 | 5124 ft | 238 kts | 253° |
| 2026-04-15 13:23 | 51.01229 | -0.93286 | 5946 ft | 241 kts | 253° |
| 2026-04-15 13:23 | 51.00871 | -0.95900 | 6734 ft | 243 kts | 253° |
| 2026-04-15 13:23 | 51.00508 | -0.98539 | 7470 ft | 246 kts | 253° |
| 2026-04-15 13:24 | 51.00143 | -1.01204 | 8239 ft | 248 kts | 253° |
| 2026-04-15 13:24 | 50.99773 | -1.03901 | 9001 ft | 251 kts | 252° |
| 2026-04-15 13:24 | 50.99397 | -1.06625 | 9726 ft | 254 kts | 252° |
| 2026-04-15 13:24 | 50.99016 | -1.09389 | 10320 ft | 262 kts | 252° |
| 2026-04-15 13:25 | 50.98604 | -1.12337 | 10458 ft | 284 kts | 252° |
| 2026-04-15 13:25 | 50.98158 | -1.15521 | 10586 ft | 305 kts | 253° |
| 2026-04-15 13:25 | 50.97682 | -1.18910 | 10717 ft | 324 kts | 253° |
| 2026-04-15 13:25 | 50.97185 | -1.22457 | 11101 ft | 333 kts | 253° |
| 2026-04-15 13:26 | 50.96683 | -1.26079 | 11657 ft | 337 kts | 253° |
| 2026-04-15 13:26 | 50.96117 | -1.29692 | 12203 ft | 337 kts | 247° |
| 2026-04-15 13:26 | 50.95125 | -1.33050 | 12781 ft | 336 kts | 235° |
| 2026-04-15 13:26 | 50.93696 | -1.35965 | 13365 ft | 336 kts | 224° |
| 2026-04-15 13:27 | 50.91888 | -1.38318 | 13953 ft | 338 kts | 213° |
| 2026-04-15 13:27 | 50.89915 | -1.40360 | 14474 ft | 340 kts | 213° |
| 2026-04-15 13:27 | 50.87926 | -1.42423 | 15009 ft | 343 kts | 213° |
| 2026-04-15 13:27 | 50.85924 | -1.44500 | 15534 ft | 345 kts | 213° |
| 2026-04-15 13:28 | 50.83904 | -1.46597 | 16107 ft | 348 kts | 213° |
| 2026-04-15 13:28 | 50.81876 | -1.48706 | 16702 ft | 350 kts | 213° |
| 2026-04-15 13:28 | 50.79830 | -1.50827 | 17283 ft | 353 kts | 213° |
| 2026-04-15 13:28 | 50.77765 | -1.52962 | 17869 ft | 356 kts | 212° |
| 2026-04-15 13:29 | 50.75685 | -1.55111 | 18404 ft | 358 kts | 212° |
| 2026-04-15 13:29 | 50.73591 | -1.57273 | 18892 ft | 360 kts | 212° |
| 2026-04-15 13:29 | 50.71497 | -1.59442 | 19395 ft | 361 kts | 212° |
| 2026-04-15 13:29 | 50.69388 | -1.61622 | 19909 ft | 362 kts | 212° |
| 2026-04-15 13:30 | 50.67275 | -1.63805 | 20414 ft | 363 kts | 212° |
| 2026-04-15 13:30 | 50.65163 | -1.65984 | 20906 ft | 364 kts | 211° |
| 2026-04-15 13:30 | 50.63041 | -1.68170 | 21324 ft | 365 kts | 212° |
| 2026-04-15 13:30 | 50.60913 | -1.70352 | 21746 ft | 366 kts | 211° |
| 2026-04-15 13:31 | 50.58774 | -1.72539 | 22184 ft | 367 kts | 211° |
| 2026-04-15 13:31 | 50.56628 | -1.74731 | 22608 ft | 368 kts | 211° |
| 2026-04-15 13:31 | 50.54478 | -1.76927 | 23029 ft | 369 kts | 211° |
| 2026-04-15 13:31 | 50.52319 | -1.79130 | 23431 ft | 370 kts | 211° |
| 2026-04-15 13:32 | 50.50157 | -1.81335 | 23766 ft | 371 kts | 211° |
| 2026-04-15 13:32 | 50.47990 | -1.83546 | 24049 ft | 372 kts | 211° |
| 2026-04-15 13:32 | 50.45814 | -1.85766 | 24393 ft | 373 kts | 211° |
| 2026-04-15 13:32 | 50.43634 | -1.87992 | 24759 ft | 373 kts | 211° |
| 2026-04-15 13:33 | 50.41486 | -1.90179 | 25219 ft | 371 kts | 211° |
| 2026-04-15 13:33 | 50.39326 | -1.92373 | 25620 ft | 370 kts | 211° |
| 2026-04-15 13:33 | 50.37171 | -1.94558 | 26077 ft | 369 kts | 211° |
| 2026-04-15 13:33 | 50.35018 | -1.96736 | 26498 ft | 368 kts | 211° |
| 2026-04-15 13:34 | 50.32875 | -1.98904 | 26909 ft | 366 kts | 211° |
| 2026-04-15 13:34 | 50.30736 | -2.01068 | 27340 ft | 365 kts | 211° |
| 2026-04-15 13:34 | 50.28576 | -2.03248 | 27757 ft | 364 kts | 211° |
| 2026-04-15 13:34 | 50.26475 | -2.05364 | 28181 ft | 363 kts | 211° |
| 2026-04-15 13:35 | 50.24358 | -2.07495 | 28613 ft | 362 kts | 211° |
| 2026-04-15 13:35 | 50.22237 | -2.09603 | 29043 ft | 360 kts | 211° |
| 2026-04-15 13:35 | 50.20116 | -2.11675 | 29481 ft | 359 kts | 211° |
| 2026-04-15 13:35 | 50.17990 | -2.13731 | 29915 ft | 358 kts | 210° |
| 2026-04-15 13:36 | 50.15873 | -2.15777 | 30255 ft | 358 kts | 211° |
| 2026-04-15 13:36 | 50.13761 | -2.17822 | 30596 ft | 357 kts | 211° |
| 2026-04-15 13:36 | 50.11653 | -2.19866 | 30947 ft | 357 kts | 211° |
| 2026-04-15 13:36 | 50.09546 | -2.21910 | 31297 ft | 356 kts | 211° |
| 2026-04-15 13:37 | 50.07446 | -2.23949 | 31647 ft | 355 kts | 211° |
| 2026-04-15 13:37 | 50.05353 | -2.25977 | 31995 ft | 355 kts | 211° |
| 2026-04-15 13:37 | 50.03258 | -2.28003 | 32432 ft | 354 kts | 211° |
| 2026-04-15 13:37 | 50.01166 | -2.30024 | 32755 ft | 354 kts | 212° |
| 2026-04-15 13:38 | 49.99074 | -2.32043 | 33080 ft | 354 kts | 212° |
| 2026-04-15 13:38 | 49.96982 | -2.34059 | 33404 ft | 354 kts | 212° |
| 2026-04-15 13:38 | 49.94892 | -2.36072 | 33735 ft | 353 kts | 212° |
| 2026-04-15 13:38 | 49.92805 | -2.38079 | 34029 ft | 353 kts | 212° |
| 2026-04-15 13:39 | 49.90722 | -2.40087 | 34314 ft | 352 kts | 212° |
| 2026-04-15 13:39 | 49.88638 | -2.42099 | 34531 ft | 353 kts | 212° |
| 2026-04-15 13:39 | 49.86549 | -2.44110 | 34729 ft | 354 kts | 212° |
| 2026-04-15 13:39 | 49.84454 | -2.46119 | 34922 ft | 355 kts | 212° |
| 2026-04-15 13:40 | 49.82346 | -2.48140 | 35041 ft | 357 kts | 212° |
| 2026-04-15 13:40 | 49.80222 | -2.50177 | 35076 ft | 362 kts | 212° |
| 2026-04-15 13:40 | 49.75883 | -2.54327 | 35075 ft | 370 kts | 212° |
| 2026-04-15 13:41 | 49.71490 | -2.58525 | 35033 ft | 371 kts | 213° |
| 2026-04-15 13:41 | 49.67101 | -2.62719 | 35076 ft | 371 kts | 213° |
| 2026-04-15 13:42 | 49.62734 | -2.66877 | 35077 ft | 371 kts | 213° |
| 2026-04-15 13:42 | 49.58332 | -2.71045 | 35114 ft | 372 kts | 213° |
| 2026-04-15 13:43 | 49.53912 | -2.75220 | 35095 ft | 373 kts | 213° |
| 2026-04-15 13:43 | 49.49487 | -2.79407 | 35088 ft | 374 kts | 213° |
| 2026-04-15 13:44 | 49.45040 | -2.83601 | 35055 ft | 374 kts | 213° |
| 2026-04-15 13:44 | 49.40595 | -2.87776 | 35055 ft | 375 kts | 213° |
| 2026-04-15 13:45 | 49.36146 | -2.91950 | 35067 ft | 375 kts | 213° |
| 2026-04-15 13:47 | 49.18312 | -3.08599 | 35067 ft | 376 kts | 213° |
| 2026-04-15 13:47 | 49.13845 | -3.12757 | 35102 ft | 376 kts | 214° |
| 2026-04-15 13:48 | 49.09366 | -3.16908 | 35101 ft | 377 kts | 214° |
| 2026-04-15 13:48 | 49.04869 | -3.21064 | 35098 ft | 377 kts | 214° |
| 2026-04-15 13:49 | 49.00387 | -3.25197 | 35071 ft | 377 kts | 214° |
| 2026-04-15 13:49 | 48.95888 | -3.29336 | 35080 ft | 378 kts | 214° |
| 2026-04-15 13:50 | 48.91390 | -3.33471 | 35086 ft | 378 kts | 214° |
| 2026-04-15 13:50 | 48.86888 | -3.37595 | 35091 ft | 378 kts | 214° |
| 2026-04-15 13:51 | 48.82387 | -3.41717 | 35095 ft | 378 kts | 214° |
| 2026-04-15 13:51 | 48.77876 | -3.45828 | 35097 ft | 378 kts | 214° |
| 2026-04-15 13:52 | 48.73369 | -3.49932 | 35124 ft | 378 kts | 214° |
| 2026-04-15 13:52 | 48.68856 | -3.54047 | 35108 ft | 379 kts | 214° |
| 2026-04-15 13:53 | 48.64325 | -3.58160 | 35098 ft | 380 kts | 214° |
| 2026-04-15 13:53 | 48.59790 | -3.62257 | 35099 ft | 380 kts | 214° |
| 2026-04-15 13:54 | 48.55250 | -3.66354 | 35070 ft | 380 kts | 215° |
| 2026-04-15 13:54 | 48.50709 | -3.70453 | 35085 ft | 380 kts | 215° |
| 2026-04-15 13:55 | 48.46168 | -3.74549 | 35097 ft | 380 kts | 215° |
| 2026-04-15 13:55 | 48.41626 | -3.78630 | 35112 ft | 380 kts | 215° |
| 2026-04-15 13:56 | 48.37074 | -3.82691 | 35065 ft | 380 kts | 215° |
| 2026-04-15 13:56 | 48.32524 | -3.86751 | 35130 ft | 380 kts | 216° |
| 2026-04-15 13:57 | 48.27966 | -3.90815 | 35126 ft | 381 kts | 216° |
| 2026-04-15 13:57 | 48.23429 | -3.94840 | 35138 ft | 381 kts | 216° |
| 2026-04-15 13:58 | 48.18861 | -3.98909 | 35139 ft | 382 kts | 216° |
| 2026-04-15 13:58 | 48.15034 | -4.02312 | 35106 ft | 382 kts | 216° |
| 2026-04-15 13:59 | 48.09717 | -4.07013 | 35128 ft | 382 kts | 216° |
| 2026-04-15 13:59 | 48.05883 | -4.10393 | 35141 ft | 382 kts | 216° |
| 2026-04-15 14:00 | 48.01307 | -4.14423 | 35142 ft | 381 kts | 216° |
| 2026-04-15 14:00 | 47.96740 | -4.18452 | 35144 ft | 381 kts | 216° |
| 2026-04-15 14:01 | 47.91448 | -4.23091 | 35121 ft | 381 kts | 216° |
| 2026-04-15 14:02 | 47.86896 | -4.27075 | 35152 ft | 381 kts | 217° |
| 2026-04-15 14:02 | 47.82315 | -4.31069 | 35153 ft | 382 kts | 217° |
| 2026-04-15 14:03 | 47.77781 | -4.35163 | 35160 ft | 381 kts | 218° |
| 2026-04-15 14:03 | 47.73304 | -4.39362 | 35161 ft | 380 kts | 218° |
| 2026-04-15 14:04 | 47.68822 | -4.43558 | 35134 ft | 381 kts | 218° |
| 2026-04-15 14:04 | 47.64322 | -4.47718 | 35147 ft | 381 kts | 218° |
| 2026-04-15 14:05 | 47.59821 | -4.51862 | 35158 ft | 381 kts | 218° |
| 2026-04-15 14:05 | 47.55315 | -4.56004 | 35165 ft | 381 kts | 218° |
| 2026-04-15 14:06 | 47.50806 | -4.60143 | 35167 ft | 381 kts | 218° |
| 2026-04-15 14:06 | 47.46292 | -4.64267 | 35133 ft | 381 kts | 218° |
| 2026-04-15 14:07 | 47.41770 | -4.68383 | 35146 ft | 382 kts | 218° |
| 2026-04-15 14:07 | 47.37254 | -4.72501 | 35154 ft | 382 kts | 218° |
| 2026-04-15 14:08 | 47.32732 | -4.76622 | 35160 ft | 382 kts | 218° |
| 2026-04-15 14:08 | 47.28211 | -4.80742 | 35129 ft | 382 kts | 218° |
| 2026-04-15 14:09 | 47.23681 | -4.84845 | 35150 ft | 382 kts | 217° |
| 2026-04-15 14:09 | 47.19144 | -4.88931 | 35160 ft | 382 kts | 217° |
| 2026-04-15 14:10 | 47.14605 | -4.93016 | 35166 ft | 383 kts | 218° |
| 2026-04-15 14:10 | 47.10062 | -4.97114 | 35185 ft | 383 kts | 218° |
| 2026-04-15 14:11 | 47.05514 | -5.01199 | 35138 ft | 384 kts | 218° |
| 2026-04-15 14:11 | 47.00965 | -5.05302 | 35152 ft | 384 kts | 218° |
| 2026-04-15 14:12 | 46.96440 | -5.09385 | 35159 ft | 385 kts | 217° |
| 2026-04-15 14:12 | 46.91863 | -5.13484 | 35170 ft | 385 kts | 217° |
| 2026-04-15 14:13 | 46.87286 | -5.17572 | 35179 ft | 385 kts | 217° |
| 2026-04-15 14:13 | 46.82711 | -5.21656 | 35158 ft | 385 kts | 217° |
| 2026-04-15 14:14 | 46.78138 | -5.25742 | 35167 ft | 386 kts | 217° |
| 2026-04-15 14:14 | 46.73551 | -5.29821 | 35192 ft | 386 kts | 217° |
| 2026-04-15 14:15 | 46.68961 | -5.33899 | 35189 ft | 386 kts | 217° |
| 2026-04-15 14:15 | 46.64364 | -5.37966 | 35188 ft | 387 kts | 217° |
| 2026-04-15 14:16 | 46.59764 | -5.42035 | 35200 ft | 387 kts | 217° |
| 2026-04-15 14:16 | 46.55165 | -5.46092 | 35200 ft | 387 kts | 217° |
| 2026-04-15 14:17 | 46.50560 | -5.50148 | 35197 ft | 387 kts | 217° |
| 2026-04-15 14:17 | 46.45955 | -5.54200 | 35197 ft | 387 kts | 217° |
| 2026-04-15 14:18 | 46.41346 | -5.58232 | 35167 ft | 387 kts | 217° |
| 2026-04-15 14:18 | 46.36727 | -5.62276 | 35185 ft | 388 kts | 217° |
| 2026-04-15 14:19 | 46.32107 | -5.66313 | 35196 ft | 388 kts | 217° |
| 2026-04-15 14:19 | 46.27506 | -5.70331 | 35196 ft | 388 kts | 217° |
| 2026-04-15 14:20 | 46.22875 | -5.74357 | 35202 ft | 389 kts | 217° |
| 2026-04-15 14:20 | 46.18238 | -5.78384 | 35188 ft | 389 kts | 217° |
| 2026-04-15 14:21 | 46.13591 | -5.82417 | 35191 ft | 389 kts | 217° |
| 2026-04-15 14:21 | 46.08943 | -5.86440 | 35201 ft | 390 kts | 217° |
| 2026-04-15 14:22 | 46.04295 | -5.90456 | 35206 ft | 390 kts | 217° |
| 2026-04-15 14:22 | 45.99638 | -5.94467 | 35191 ft | 390 kts | 217° |
| 2026-04-15 14:23 | 45.94976 | -5.98470 | 35196 ft | 391 kts | 217° |
| 2026-04-15 14:23 | 45.90303 | -6.02471 | 35204 ft | 391 kts | 217° |
| 2026-04-15 14:24 | 45.85623 | -6.06467 | 35207 ft | 391 kts | 217° |
| 2026-04-15 14:24 | 45.80944 | -6.10463 | 35211 ft | 391 kts | 217° |
| 2026-04-15 14:25 | 45.76260 | -6.14460 | 35196 ft | 392 kts | 217° |
| 2026-04-15 14:25 | 45.71572 | -6.18453 | 35209 ft | 392 kts | 217° |
| 2026-04-15 14:26 | 45.66876 | -6.22440 | 35215 ft | 392 kts | 217° |
| 2026-04-15 14:26 | 45.62180 | -6.26427 | 35235 ft | 393 kts | 217° |
| 2026-04-15 14:27 | 45.57479 | -6.30404 | 35204 ft | 393 kts | 217° |
| 2026-04-15 14:27 | 45.52779 | -6.34388 | 35210 ft | 393 kts | 217° |
| 2026-04-15 14:28 | 45.48066 | -6.38358 | 35219 ft | 394 kts | 217° |
| 2026-04-15 14:28 | 45.43347 | -6.42315 | 35222 ft | 394 kts | 217° |
| 2026-04-15 14:29 | 45.38631 | -6.46281 | 35209 ft | 394 kts | 217° |
| 2026-04-15 14:29 | 45.33912 | -6.50235 | 35219 ft | 394 kts | 216° |
| 2026-04-15 14:30 | 45.29188 | -6.54185 | 35228 ft | 394 kts | 216° |
| 2026-04-15 14:30 | 45.24459 | -6.58127 | 35236 ft | 394 kts | 217° |
| 2026-04-15 14:31 | 45.19731 | -6.62067 | 35237 ft | 394 kts | 217° |
| 2026-04-15 14:31 | 45.15001 | -6.66003 | 35221 ft | 394 kts | 216° |
| 2026-04-15 14:32 | 45.10262 | -6.69935 | 35227 ft | 395 kts | 216° |
| 2026-04-15 14:32 | 45.05526 | -6.73859 | 35233 ft | 395 kts | 216° |
| 2026-04-15 14:33 | 45.00785 | -6.77788 | 35240 ft | 395 kts | 216° |
| 2026-04-15 14:33 | 44.96037 | -6.81696 | 35223 ft | 395 kts | 216° |
| 2026-04-15 14:34 | 44.91292 | -6.85610 | 35233 ft | 395 kts | 216° |
| 2026-04-15 14:34 | 44.86537 | -6.89512 | 35242 ft | 396 kts | 216° |
| 2026-04-15 14:35 | 44.81752 | -6.93353 | 35236 ft | 397 kts | 214° |
| 2026-04-15 14:35 | 44.76854 | -6.96886 | 35229 ft | 399 kts | 213° |
| 2026-04-15 14:36 | 44.71875 | -7.00333 | 35233 ft | 399 kts | 213° |
| 2026-04-15 14:36 | 44.66907 | -7.03817 | 35238 ft | 399 kts | 213° |
| 2026-04-15 14:37 | 44.61957 | -7.07334 | 35246 ft | 399 kts | 213° |
| 2026-04-15 14:37 | 44.57008 | -7.10859 | 35248 ft | 399 kts | 213° |
| 2026-04-15 14:38 | 44.52050 | -7.14373 | 35250 ft | 399 kts | 213° |
| 2026-04-15 14:38 | 44.47088 | -7.17878 | 35254 ft | 400 kts | 213° |
| 2026-04-15 14:39 | 44.42922 | -7.20812 | 35259 ft | 400 kts | 213° |
| 2026-04-15 14:39 | 44.37983 | -7.24284 | 35249 ft | 400 kts | 213° |
| 2026-04-15 14:40 | 44.33010 | -7.27785 | 35252 ft | 400 kts | 213° |
| 2026-04-15 14:40 | 44.28038 | -7.31276 | 35252 ft | 400 kts | 213° |
| 2026-04-15 14:41 | 44.23056 | -7.34758 | 35255 ft | 400 kts | 213° |
| 2026-04-15 14:41 | 44.18076 | -7.38242 | 35239 ft | 400 kts | 213° |
| 2026-04-15 14:42 | 44.13100 | -7.41719 | 35240 ft | 400 kts | 213° |
| 2026-04-15 14:42 | 44.08114 | -7.45186 | 35244 ft | 400 kts | 213° |
| 2026-04-15 14:43 | 44.03129 | -7.48646 | 35250 ft | 400 kts | 213° |
| 2026-04-15 14:43 | 43.98144 | -7.52099 | 35252 ft | 401 kts | 213° |
| 2026-04-15 14:44 | 43.93149 | -7.55559 | 35233 ft | 401 kts | 213° |
| 2026-04-15 14:44 | 43.88158 | -7.59005 | 35242 ft | 401 kts | 213° |
| 2026-04-15 14:45 | 43.83163 | -7.62455 | 35252 ft | 401 kts | 213° |
| 2026-04-15 14:45 | 43.78165 | -7.65896 | 35250 ft | 402 kts | 213° |
| 2026-04-15 14:46 | 43.73158 | -7.69335 | 35232 ft | 402 kts | 213° |
| 2026-04-15 14:46 | 43.68145 | -7.72773 | 35243 ft | 402 kts | 213° |
| 2026-04-15 14:47 | 43.63132 | -7.76205 | 35242 ft | 402 kts | 213° |
| 2026-04-15 14:47 | 43.58110 | -7.79631 | 35247 ft | 402 kts | 213° |
| 2026-04-15 14:48 | 43.53086 | -7.83051 | 35238 ft | 402 kts | 213° |
| 2026-04-15 14:48 | 43.48075 | -7.86465 | 35246 ft | 402 kts | 213° |
| 2026-04-15 14:49 | 43.43054 | -7.89878 | 35250 ft | 402 kts | 213° |
| 2026-04-15 14:49 | 43.38026 | -7.93287 | 35257 ft | 403 kts | 213° |
| 2026-04-15 14:50 | 43.32995 | -7.96696 | 35237 ft | 403 kts | 213° |
| 2026-04-15 14:50 | 43.27972 | -8.00094 | 35250 ft | 403 kts | 213° |
| 2026-04-15 14:51 | 43.22923 | -8.03499 | 35228 ft | 406 kts | 213° |
| 2026-04-15 14:51 | 43.17831 | -8.06922 | 35227 ft | 409 kts | 213° |
| 2026-04-15 14:52 | 43.12709 | -8.10359 | 35222 ft | 410 kts | 213° |
| 2026-04-15 14:52 | 43.07578 | -8.13804 | 35253 ft | 411 kts | 212° |
| 2026-04-15 14:53 | 43.02437 | -8.17240 | 35262 ft | 411 kts | 212° |
| 2026-04-15 14:53 | 42.97299 | -8.20672 | 35274 ft | 411 kts | 212° |
| 2026-04-15 14:54 | 42.92165 | -8.24097 | 35264 ft | 410 kts | 212° |
| 2026-04-15 14:54 | 42.87034 | -8.27514 | 35267 ft | 410 kts | 212° |
| 2026-04-15 14:55 | 42.81926 | -8.30906 | 35267 ft | 410 kts | 212° |
| 2026-04-15 14:55 | 42.76787 | -8.34306 | 35270 ft | 410 kts | 212° |
| 2026-04-15 14:56 | 42.71650 | -8.37697 | 35279 ft | 411 kts | 212° |
| 2026-04-15 14:56 | 42.66509 | -8.41104 | 35263 ft | 411 kts | 212° |
| 2026-04-15 14:57 | 42.61364 | -8.44498 | 35271 ft | 411 kts | 212° |
| 2026-04-15 14:57 | 42.56218 | -8.47890 | 35278 ft | 411 kts | 212° |
| 2026-04-15 14:58 | 42.51077 | -8.51272 | 35292 ft | 411 kts | 212° |
| 2026-04-15 14:58 | 42.45927 | -8.54647 | 35302 ft | 411 kts | 212° |
| 2026-04-15 14:59 | 42.40782 | -8.58008 | 35303 ft | 411 kts | 212° |
| 2026-04-15 14:59 | 42.35631 | -8.61367 | 35310 ft | 411 kts | 212° |
| 2026-04-15 15:00 | 42.30487 | -8.64729 | 35304 ft | 411 kts | 212° |
| 2026-04-15 15:00 | 42.25338 | -8.68084 | 35287 ft | 411 kts | 212° |
| 2026-04-15 15:01 | 42.20188 | -8.71435 | 35300 ft | 411 kts | 212° |
| 2026-04-15 15:01 | 42.15029 | -8.74791 | 35282 ft | 412 kts | 212° |
| 2026-04-15 15:02 | 42.09865 | -8.78132 | 35287 ft | 412 kts | 212° |
| 2026-04-15 15:02 | 42.04684 | -8.81469 | 35274 ft | 413 kts | 212° |
| 2026-04-15 15:03 | 41.99503 | -8.84797 | 35280 ft | 413 kts | 212° |
| 2026-04-15 15:03 | 41.94319 | -8.88136 | 35301 ft | 413 kts | 212° |
| 2026-04-15 15:04 | 41.89126 | -8.91475 | 35304 ft | 413 kts | 212° |
| 2026-04-15 15:04 | 41.84124 | -8.95183 | 35283 ft | 409 kts | 216° |
| 2026-04-15 15:05 | 41.79235 | -8.99097 | 35290 ft | 409 kts | 216° |
| 2026-04-15 15:05 | 41.74340 | -9.03011 | 35296 ft | 410 kts | 216° |
| 2026-04-15 15:06 | 41.67013 | -9.08841 | 35304 ft | 410 kts | 216° |
| 2026-04-15 15:06 | 41.62108 | -9.12745 | 35290 ft | 410 kts | 216° |
| 2026-04-15 15:07 | 41.57196 | -9.16642 | 35299 ft | 411 kts | 216° |
| 2026-04-15 15:07 | 41.52272 | -9.20531 | 35303 ft | 411 kts | 216° |
| 2026-04-15 15:08 | 41.47353 | -9.24417 | 35307 ft | 411 kts | 216° |
| 2026-04-15 15:08 | 41.42431 | -9.28310 | 35309 ft | 411 kts | 216° |
| 2026-04-15 15:09 | 41.37505 | -9.32189 | 35295 ft | 412 kts | 216° |
| 2026-04-15 15:09 | 41.32567 | -9.36062 | 35306 ft | 412 kts | 216° |
| 2026-04-15 15:10 | 41.27636 | -9.39932 | 35311 ft | 412 kts | 216° |
| 2026-04-15 15:10 | 41.22699 | -9.43797 | 35310 ft | 411 kts | 216° |
| 2026-04-15 15:11 | 41.17770 | -9.47654 | 35307 ft | 411 kts | 216° |
| 2026-04-15 15:11 | 41.12838 | -9.51505 | 35302 ft | 411 kts | 216° |
| 2026-04-15 15:12 | 41.07907 | -9.55342 | 35307 ft | 411 kts | 216° |
| 2026-04-15 15:12 | 41.02972 | -9.59179 | 35313 ft | 411 kts | 216° |
| 2026-04-15 15:13 | 40.98035 | -9.63009 | 35314 ft | 411 kts | 216° |
| 2026-04-15 15:13 | 40.93100 | -9.66831 | 35292 ft | 411 kts | 216° |
| 2026-04-15 15:14 | 40.88184 | -9.70641 | 35315 ft | 409 kts | 216° |
| 2026-04-15 15:14 | 40.83280 | -9.74431 | 35320 ft | 407 kts | 216° |
| 2026-04-15 15:15 | 40.78388 | -9.78191 | 35320 ft | 407 kts | 216° |
| 2026-04-15 15:15 | 40.73503 | -9.81953 | 35318 ft | 406 kts | 216° |
| 2026-04-15 15:16 | 40.68654 | -9.85682 | 35308 ft | 406 kts | 216° |
| 2026-04-15 15:16 | 40.63776 | -9.89425 | 35315 ft | 405 kts | 216° |
| 2026-04-15 15:17 | 40.58899 | -9.93158 | 35321 ft | 405 kts | 216° |
| 2026-04-15 15:17 | 40.54026 | -9.96886 | 35321 ft | 405 kts | 216° |
| 2026-04-15 15:18 | 40.49150 | -10.00597 | 35318 ft | 405 kts | 216° |
| 2026-04-15 15:18 | 40.45097 | -10.03682 | 35298 ft | 405 kts | 216° |
| 2026-04-15 15:19 | 40.40222 | -10.07388 | 35318 ft | 405 kts | 216° |
| 2026-04-15 15:19 | 40.35347 | -10.11103 | 35324 ft | 405 kts | 216° |
| 2026-04-15 15:20 | 40.30481 | -10.14802 | 35310 ft | 404 kts | 216° |
| 2026-04-15 15:20 | 40.25611 | -10.18491 | 35319 ft | 404 kts | 216° |
| 2026-04-15 15:21 | 40.20741 | -10.22166 | 35325 ft | 404 kts | 216° |
| 2026-04-15 15:21 | 40.15856 | -10.25841 | 35317 ft | 404 kts | 216° |
| 2026-04-15 15:22 | 40.10982 | -10.29515 | 35319 ft | 405 kts | 216° |
| 2026-04-15 15:22 | 40.06104 | -10.33186 | 35322 ft | 405 kts | 216° |
| 2026-04-15 15:23 | 40.01220 | -10.36848 | 35326 ft | 405 kts | 216° |
| 2026-04-15 15:23 | 39.96324 | -10.40512 | 35308 ft | 405 kts | 216° |
| 2026-04-15 15:24 | 39.91441 | -10.44175 | 35317 ft | 405 kts | 216° |
| 2026-04-15 15:24 | 39.86569 | -10.47810 | 35313 ft | 406 kts | 216° |
| 2026-04-15 15:25 | 39.81641 | -10.51488 | 35310 ft | 406 kts | 216° |
| 2026-04-15 15:25 | 39.76767 | -10.55107 | 35289 ft | 406 kts | 216° |
| 2026-04-15 15:26 | 39.71862 | -10.58741 | 35300 ft | 406 kts | 215° |
| 2026-04-15 15:26 | 39.66946 | -10.62385 | 35302 ft | 406 kts | 215° |
| 2026-04-15 15:27 | 39.62034 | -10.66019 | 35309 ft | 407 kts | 215° |
| 2026-04-15 15:27 | 39.57122 | -10.69669 | 35313 ft | 407 kts | 216° |
| 2026-04-15 15:28 | 39.52206 | -10.73312 | 35284 ft | 407 kts | 215° |
| 2026-04-15 15:28 | 39.47272 | -10.76946 | 35291 ft | 409 kts | 215° |
| 2026-04-15 15:29 | 39.42321 | -10.80583 | 35292 ft | 409 kts | 215° |
| 2026-04-15 15:29 | 39.37366 | -10.84231 | 35303 ft | 410 kts | 215° |
| 2026-04-15 15:30 | 39.32400 | -10.87868 | 35311 ft | 410 kts | 215° |
| 2026-04-15 15:30 | 39.27418 | -10.91505 | 35301 ft | 411 kts | 214° |
| 2026-04-15 15:31 | 39.22435 | -10.95140 | 35306 ft | 412 kts | 214° |
| 2026-04-15 15:31 | 39.17689 | -10.99190 | 35309 ft | 408 kts | 220° |
| 2026-04-15 15:32 | 39.15390 | -11.01327 | 35596 ft | 406 kts | 220° |
| 2026-04-15 15:32 | 39.13105 | -11.03443 | 35952 ft | 404 kts | 220° |
| 2026-04-15 15:32 | 39.10827 | -11.05546 | 36260 ft | 402 kts | 220° |
| 2026-04-15 15:32 | 39.08582 | -11.07618 | 36539 ft | 401 kts | 220° |
| 2026-04-15 15:33 | 39.06316 | -11.09708 | 36808 ft | 400 kts | 220° |
| 2026-04-15 15:33 | 39.04055 | -11.11795 | 37043 ft | 400 kts | 220° |
| 2026-04-15 15:33 | 39.01788 | -11.13894 | 37239 ft | 401 kts | 220° |
| 2026-04-15 15:33 | 38.99521 | -11.15990 | 37309 ft | 401 kts | 220° |
| 2026-04-15 15:34 | 38.94983 | -11.20177 | 37310 ft | 401 kts | 220° |
| 2026-04-15 15:34 | 38.90449 | -11.24345 | 37307 ft | 401 kts | 220° |
| 2026-04-15 15:35 | 38.85910 | -11.28509 | 37307 ft | 401 kts | 220° |
| 2026-04-15 15:35 | 38.81373 | -11.32670 | 37308 ft | 401 kts | 220° |
| 2026-04-15 15:36 | 38.76829 | -11.36829 | 37288 ft | 402 kts | 219° |
| 2026-04-15 15:36 | 38.72270 | -11.40998 | 37296 ft | 403 kts | 219° |
| 2026-04-15 15:37 | 38.67699 | -11.45167 | 37298 ft | 404 kts | 219° |
| 2026-04-15 15:37 | 38.63117 | -11.49341 | 37309 ft | 404 kts | 219° |
| 2026-04-15 15:38 | 38.58533 | -11.53514 | 37316 ft | 405 kts | 219° |
| 2026-04-15 15:38 | 38.53937 | -11.57680 | 37300 ft | 405 kts | 219° |
| 2026-04-15 15:39 | 38.49336 | -11.61846 | 37300 ft | 406 kts | 219° |
| 2026-04-15 15:39 | 38.44725 | -11.66023 | 37307 ft | 406 kts | 219° |
| 2026-04-15 15:40 | 38.40110 | -11.70191 | 37314 ft | 407 kts | 219° |
| 2026-04-15 15:40 | 38.35484 | -11.74355 | 37317 ft | 407 kts | 219° |
| 2026-04-15 15:41 | 38.30887 | -11.78494 | 37334 ft | 407 kts | 219° |
| 2026-04-15 15:41 | 38.26260 | -11.82665 | 37314 ft | 407 kts | 219° |
| 2026-04-15 15:42 | 38.21624 | -11.86833 | 37312 ft | 408 kts | 219° |
| 2026-04-15 15:42 | 38.16979 | -11.91000 | 37306 ft | 409 kts | 218° |
| 2026-04-15 15:43 | 38.12320 | -11.95161 | 37314 ft | 409 kts | 219° |
| 2026-04-15 15:43 | 38.07667 | -11.99325 | 37317 ft | 409 kts | 218° |
| 2026-04-15 15:44 | 38.02998 | -12.03482 | 37303 ft | 410 kts | 218° |
| 2026-04-15 15:44 | 37.98358 | -12.07619 | 37315 ft | 410 kts | 218° |
| 2026-04-15 15:45 | 37.93688 | -12.11777 | 37322 ft | 410 kts | 218° |
| 2026-04-15 15:45 | 37.89007 | -12.15933 | 37322 ft | 411 kts | 218° |
| 2026-04-15 15:46 | 37.84322 | -12.20086 | 37321 ft | 411 kts | 218° |
| 2026-04-15 15:46 | 37.79635 | -12.24241 | 37331 ft | 411 kts | 218° |
| 2026-04-15 15:47 | 37.74947 | -12.28374 | 37326 ft | 411 kts | 218° |
| 2026-04-15 15:47 | 37.70260 | -12.32511 | 37337 ft | 411 kts | 218° |
| 2026-04-15 15:48 | 37.65574 | -12.36639 | 37335 ft | 411 kts | 218° |
| 2026-04-15 15:48 | 37.60878 | -12.40767 | 37337 ft | 411 kts | 218° |
| 2026-04-15 15:49 | 37.56179 | -12.44893 | 37334 ft | 411 kts | 218° |
| 2026-04-15 15:49 | 37.51484 | -12.49010 | 37317 ft | 411 kts | 218° |
| 2026-04-15 15:50 | 37.46782 | -12.53122 | 37323 ft | 412 kts | 218° |
| 2026-04-15 15:50 | 37.42074 | -12.57235 | 37324 ft | 412 kts | 218° |
| 2026-04-15 15:51 | 37.37366 | -12.61348 | 37326 ft | 412 kts | 218° |
| 2026-04-15 15:51 | 37.32652 | -12.65458 | 37331 ft | 412 kts | 217° |
| 2026-04-15 15:52 | 37.27963 | -12.69528 | 37329 ft | 412 kts | 218° |
| 2026-04-15 15:52 | 37.23226 | -12.73658 | 37320 ft | 412 kts | 217° |
| 2026-04-15 15:53 | 37.18545 | -12.77729 | 37328 ft | 412 kts | 217° |
| 2026-04-15 15:53 | 37.13820 | -12.81817 | 37331 ft | 413 kts | 217° |
| 2026-04-15 15:54 | 37.09089 | -12.85903 | 37336 ft | 413 kts | 217° |
| 2026-04-15 15:54 | 37.04356 | -12.89981 | 37337 ft | 413 kts | 217° |
| 2026-04-15 15:55 | 36.99624 | -12.94061 | 37321 ft | 413 kts | 217° |
| 2026-04-15 15:55 | 36.94891 | -12.98138 | 37325 ft | 413 kts | 217° |
| 2026-04-15 15:56 | 36.90145 | -13.02212 | 37325 ft | 414 kts | 217° |
| 2026-04-15 15:56 | 36.85398 | -13.06286 | 37328 ft | 414 kts | 217° |
| 2026-04-15 15:57 | 36.80638 | -13.10359 | 37329 ft | 414 kts | 217° |
| 2026-04-15 15:57 | 36.75878 | -13.14429 | 37338 ft | 414 kts | 217° |
| 2026-04-15 15:58 | 36.71122 | -13.18497 | 37324 ft | 415 kts | 216° |
| 2026-04-15 15:58 | 36.66353 | -13.22561 | 37327 ft | 415 kts | 216° |
| 2026-04-15 15:59 | 36.62390 | -13.25942 | 37329 ft | 416 kts | 216° |
| 2026-04-15 15:59 | 36.57607 | -13.30003 | 37331 ft | 416 kts | 216° |
| 2026-04-15 16:00 | 36.52856 | -13.34102 | 37332 ft | 415 kts | 218° |
| 2026-04-15 16:00 | 36.48281 | -13.38461 | 37329 ft | 414 kts | 220° |
| 2026-04-15 16:01 | 36.43761 | -13.42891 | 37323 ft | 414 kts | 219° |
| 2026-04-15 16:01 | 36.39211 | -13.47280 | 37322 ft | 414 kts | 219° |
| 2026-04-15 16:02 | 36.34626 | -13.51613 | 37324 ft | 415 kts | 218° |
| 2026-04-15 16:02 | 36.30026 | -13.55939 | 37323 ft | 415 kts | 219° |
| 2026-04-15 16:03 | 36.25434 | -13.60278 | 37315 ft | 415 kts | 219° |
| 2026-04-15 16:03 | 36.20840 | -13.64623 | 37320 ft | 415 kts | 219° |
| 2026-04-15 16:04 | 36.16274 | -13.68942 | 37321 ft | 415 kts | 218° |
| 2026-04-15 16:04 | 36.11667 | -13.73263 | 37325 ft | 416 kts | 218° |
| 2026-04-15 16:05 | 36.07054 | -13.77593 | 37330 ft | 416 kts | 218° |
| 2026-04-15 16:05 | 36.02450 | -13.81919 | 37329 ft | 416 kts | 218° |
| 2026-04-15 16:06 | 35.97842 | -13.86239 | 37334 ft | 416 kts | 218° |
| 2026-04-15 16:06 | 35.93233 | -13.90567 | 37318 ft | 416 kts | 218° |
| 2026-04-15 16:07 | 35.88609 | -13.94889 | 37322 ft | 417 kts | 218° |
| 2026-04-15 16:08 | 35.81667 | -14.01350 | 37329 ft | 417 kts | 218° |
| 2026-04-15 16:08 | 35.77047 | -14.05660 | 37329 ft | 417 kts | 218° |
| 2026-04-15 16:09 | 35.72419 | -14.09962 | 37329 ft | 416 kts | 218° |
| 2026-04-15 16:09 | 35.67822 | -14.14228 | 37329 ft | 416 kts | 218° |
| 2026-04-15 16:10 | 35.63197 | -14.18521 | 37319 ft | 416 kts | 218° |
| 2026-04-15 16:10 | 35.58563 | -14.22800 | 37327 ft | 416 kts | 217° |
| 2026-04-15 16:11 | 35.53930 | -14.27079 | 37316 ft | 417 kts | 217° |
| 2026-04-15 16:11 | 35.49289 | -14.31359 | 37316 ft | 417 kts | 217° |
| 2026-04-15 16:12 | 35.44638 | -14.35646 | 37328 ft | 418 kts | 217° |
| 2026-04-15 16:12 | 35.39992 | -14.39932 | 37327 ft | 418 kts | 217° |
| 2026-04-15 16:13 | 35.35341 | -14.44214 | 37311 ft | 418 kts | 217° |
| 2026-04-15 16:13 | 35.30683 | -14.48490 | 37315 ft | 419 kts | 217° |
| 2026-04-15 16:14 | 35.26017 | -14.52754 | 37321 ft | 419 kts | 217° |
| 2026-04-15 16:14 | 35.21344 | -14.57024 | 37326 ft | 419 kts | 217° |
| 2026-04-15 16:15 | 35.16677 | -14.61289 | 37320 ft | 419 kts | 217° |
| 2026-04-15 16:15 | 35.12000 | -14.65543 | 37322 ft | 419 kts | 217° |
| 2026-04-15 16:16 | 35.07320 | -14.69803 | 37326 ft | 420 kts | 217° |
| 2026-04-15 16:16 | 35.02635 | -14.74064 | 37320 ft | 420 kts | 217° |
| 2026-04-15 16:17 | 34.97948 | -14.78324 | 37316 ft | 420 kts | 217° |
| 2026-04-15 16:17 | 34.93261 | -14.82574 | 37316 ft | 420 kts | 217° |
| 2026-04-15 16:18 | 34.88566 | -14.86820 | 37319 ft | 420 kts | 217° |
| 2026-04-15 16:18 | 34.83871 | -14.91063 | 37317 ft | 420 kts | 217° |
| 2026-04-15 16:19 | 34.79168 | -14.95301 | 37308 ft | 421 kts | 216° |
| 2026-04-15 16:19 | 34.74445 | -14.99554 | 37304 ft | 422 kts | 216° |
| 2026-04-15 16:20 | 34.69725 | -15.03810 | 37316 ft | 423 kts | 216° |
| 2026-04-15 16:20 | 34.64995 | -15.08063 | 37310 ft | 423 kts | 216° |
| 2026-04-15 16:21 | 34.60252 | -15.12318 | 37313 ft | 424 kts | 216° |
| 2026-04-15 16:21 | 34.55506 | -15.16572 | 37312 ft | 424 kts | 216° |
| 2026-04-15 16:22 | 34.50756 | -15.20817 | 37309 ft | 425 kts | 216° |
| 2026-04-15 16:22 | 34.45997 | -15.25074 | 37306 ft | 425 kts | 216° |
| 2026-04-15 16:23 | 34.41230 | -15.29326 | 37310 ft | 426 kts | 216° |
| 2026-04-15 16:23 | 34.36460 | -15.33579 | 37307 ft | 426 kts | 216° |
| 2026-04-15 16:24 | 34.31714 | -15.37809 | 37310 ft | 426 kts | 216° |
| 2026-04-15 16:24 | 34.26929 | -15.42056 | 37309 ft | 426 kts | 216° |
| 2026-04-15 16:25 | 34.22141 | -15.46292 | 37296 ft | 426 kts | 215° |
| 2026-04-15 16:25 | 34.17343 | -15.50524 | 37300 ft | 427 kts | 215° |
| 2026-04-15 16:26 | 34.12545 | -15.54757 | 37303 ft | 427 kts | 215° |
| 2026-04-15 16:26 | 34.07746 | -15.58995 | 37305 ft | 427 kts | 215° |
| 2026-04-15 16:27 | 34.02973 | -15.63204 | 37296 ft | 427 kts | 215° |
| 2026-04-15 16:27 | 33.98166 | -15.67445 | 36859 ft | 428 kts | 215° |
| 2026-04-15 16:27 | 33.95761 | -15.69561 | 36203 ft | 429 kts | 215° |
| 2026-04-15 16:28 | 33.93344 | -15.71686 | 35541 ft | 431 kts | 215° |
| 2026-04-15 16:28 | 33.90912 | -15.73820 | 34804 ft | 434 kts | 215° |
| 2026-04-15 16:28 | 33.88464 | -15.75969 | 33976 ft | 438 kts | 215° |
| 2026-04-15 16:28 | 33.85988 | -15.78142 | 33129 ft | 441 kts | 215° |
| 2026-04-15 16:29 | 33.83498 | -15.80327 | 32285 ft | 444 kts | 215° |
| 2026-04-15 16:29 | 33.80987 | -15.82527 | 31389 ft | 448 kts | 215° |
| 2026-04-15 16:29 | 33.78461 | -15.84736 | 30514 ft | 450 kts | 214° |
| 2026-04-15 16:29 | 33.75909 | -15.86966 | 29453 ft | 454 kts | 215° |
| 2026-04-15 16:30 | 33.73349 | -15.89202 | 28408 ft | 456 kts | 215° |
| 2026-04-15 16:30 | 33.70780 | -15.91446 | 27361 ft | 458 kts | 215° |
| 2026-04-15 16:30 | 33.68194 | -15.93703 | 26207 ft | 461 kts | 215° |
| 2026-04-15 16:30 | 33.65572 | -15.95959 | 25044 ft | 466 kts | 214° |
| 2026-04-15 16:31 | 33.62894 | -15.98118 | 24271 ft | 461 kts | 213° |
| 2026-04-15 16:31 | 33.60203 | -16.00178 | 23377 ft | 457 kts | 212° |
| 2026-04-15 16:31 | 33.57515 | -16.02181 | 22570 ft | 451 kts | 211° |
| 2026-04-15 16:31 | 33.54855 | -16.04151 | 21782 ft | 446 kts | 211° |
| 2026-04-15 16:32 | 33.52238 | -16.06102 | 21007 ft | 441 kts | 211° |
| 2026-04-15 16:32 | 33.49654 | -16.08048 | 20234 ft | 437 kts | 212° |
| 2026-04-15 16:32 | 33.47099 | -16.09996 | 19466 ft | 433 kts | 212° |
| 2026-04-15 16:32 | 33.44570 | -16.11936 | 18705 ft | 430 kts | 211° |
| 2026-04-15 16:33 | 33.42055 | -16.13865 | 17901 ft | 427 kts | 212° |
| 2026-04-15 16:33 | 33.39568 | -16.15773 | 17197 ft | 423 kts | 211° |
| 2026-04-15 16:33 | 33.37101 | -16.17662 | 16505 ft | 419 kts | 211° |
| 2026-04-15 16:33 | 33.34653 | -16.19527 | 15857 ft | 416 kts | 210° |
| 2026-04-15 16:34 | 33.32221 | -16.21374 | 15216 ft | 413 kts | 211° |
| 2026-04-15 16:34 | 33.29803 | -16.23210 | 14588 ft | 410 kts | 211° |
| 2026-04-15 16:34 | 33.27402 | -16.25038 | 13930 ft | 408 kts | 211° |
| 2026-04-15 16:34 | 33.25015 | -16.26855 | 13251 ft | 405 kts | 210° |
| 2026-04-15 16:35 | 33.22650 | -16.28650 | 12602 ft | 401 kts | 211° |
| 2026-04-15 16:35 | 33.20304 | -16.30425 | 11922 ft | 397 kts | 210° |
| 2026-04-15 16:35 | 33.17980 | -16.32186 | 11323 ft | 392 kts | 211° |
| 2026-04-15 16:35 | 33.15742 | -16.33888 | 11177 ft | 368 kts | 211° |
| 2026-04-15 16:36 | 33.13692 | -16.35447 | 11046 ft | 342 kts | 210° |
| 2026-04-15 16:36 | 33.11717 | -16.36942 | 10929 ft | 330 kts | 210° |
| 2026-04-15 16:36 | 33.09808 | -16.38384 | 10815 ft | 319 kts | 210° |
| 2026-04-15 16:36 | 33.07964 | -16.39778 | 10673 ft | 310 kts | 210° |
| 2026-04-15 16:37 | 33.06157 | -16.41142 | 10452 ft | 305 kts | 210° |
| 2026-04-15 16:37 | 33.04372 | -16.42488 | 10219 ft | 303 kts | 210° |
| 2026-04-15 16:37 | 33.02598 | -16.43826 | 10096 ft | 302 kts | 210° |
| 2026-04-15 16:37 | 33.00822 | -16.45165 | 9965 ft | 301 kts | 210° |
| 2026-04-15 16:38 | 32.99044 | -16.46505 | 9583 ft | 306 kts | 210° |
| 2026-04-15 16:38 | 32.97235 | -16.47868 | 9253 ft | 305 kts | 210° |
| 2026-04-15 16:38 | 32.95459 | -16.49207 | 8802 ft | 300 kts | 210° |
| 2026-04-15 16:38 | 32.93694 | -16.50538 | 8175 ft | 298 kts | 210° |
| 2026-04-15 16:39 | 32.92056 | -16.52028 | 7556 ft | 295 kts | 223° |
| 2026-04-15 16:39 | 32.91155 | -16.53216 | 7095 ft | 292 kts | 228° |
| 2026-04-15 16:39 | 32.89739 | -16.54976 | 6366 ft | 295 kts | 220° |
| 2026-04-15 16:39 | 32.88228 | -16.56544 | 6084 ft | 279 kts | 218° |
| 2026-04-15 16:40 | 32.86813 | -16.58009 | 5947 ft | 261 kts | 225° |
| 2026-04-15 16:40 | 32.85799 | -16.59702 | 5832 ft | 244 kts | 244° |
| 2026-04-15 16:40 | 32.85311 | -16.61554 | 5713 ft | 229 kts | 262° |
| 2026-04-15 16:40 | 32.84912 | -16.63363 | 5609 ft | 226 kts | 242° |
| 2026-04-15 16:41 | 32.84000 | -16.64865 | 5426 ft | 225 kts | 220° |
| 2026-04-15 16:41 | 32.82718 | -16.65894 | 5081 ft | 223 kts | 202° |
| 2026-04-15 16:41 | 32.81297 | -16.66699 | 4558 ft | 229 kts | 202° |
| 2026-04-15 16:41 | 32.79868 | -16.67524 | 4183 ft | 226 kts | 203° |
| 2026-04-15 16:42 | 32.78449 | -16.68350 | 3851 ft | 228 kts | 204° |
| 2026-04-15 16:42 | 32.77016 | -16.69188 | 3529 ft | 230 kts | 204° |
| 2026-04-15 16:42 | 32.75588 | -16.70023 | 3185 ft | 225 kts | 206° |
| 2026-04-15 16:42 | 32.74203 | -16.70830 | 2975 ft | 216 kts | 205° |
| 2026-04-15 16:43 | 32.72753 | -16.71223 | 3007 ft | 216 kts | 169° |
| 2026-04-15 16:43 | 32.71308 | -16.70778 | 2962 ft | 216 kts | 169° |
| 2026-04-15 16:43 | 32.69849 | -16.71001 | 2600 ft | 213 kts | 207° |
| 2026-04-15 16:43 | 32.68667 | -16.72056 | 2386 ft | 216 kts | 223° |
| 2026-04-15 16:44 | 32.67565 | -16.73222 | 2199 ft | 204 kts | 223° |
| 2026-04-15 16:44 | 32.66542 | -16.74251 | 2133 ft | 186 kts | 215° |
| 2026-04-15 16:44 | 32.65502 | -16.75095 | 1939 ft | 174 kts | 212° |
| 2026-04-15 16:44 | 32.64560 | -16.75910 | 1991 ft | 166 kts | 216° |
| 2026-04-15 16:45 | 32.63580 | -16.76588 | 2013 ft | 163 kts | 201° |
| 2026-04-15 16:45 | 32.62531 | -16.77091 | 1983 ft | 164 kts | 219° |
| 2026-04-15 16:45 | 32.61947 | -16.78184 | 2074 ft | 159 kts | 263° |
| 2026-04-15 16:45 | 32.62064 | -16.79432 | 1832 ft | 148 kts | 301° |
| 2026-04-15 16:46 | 32.62686 | -16.80335 | 1678 ft | 138 kts | 334° |
| 2026-04-15 16:46 | 32.63562 | -16.80686 | 1525 ft | 134 kts | 360° |
| 2026-04-15 16:46 | 32.64475 | -16.80653 | 1314 ft | 132 kts | 12° |
| 2026-04-15 16:46 | 32.65375 | -16.80530 | 1129 ft | 129 kts | 8° |
| 2026-04-15 16:47 | 32.66250 | -16.80414 | 866 ft | 123 kts | 14° |
| 2026-04-15 16:47 | 32.67136 | -16.80175 | 687 ft | 134 kts | 20° |
| 2026-04-15 16:47 | 32.67927 | -16.79658 | 483 ft | 129 kts | 48° |
| 2026-04-15 16:47 | 32.68541 | -16.78892 | 311 ft | 127 kts | 43° |
| 2026-04-15 16:48 | 32.69161 | -16.78187 | 194 ft | 113 kts | 49° |
| 2026-04-15 16:48 | 32.69624 | -16.77645 | 176 ft | 72 kts | 45° |
| 2026-04-15 16:48 | 32.69840 | -16.77387 | 176 ft | 31 kts | 43° |
| 2026-04-15 16:48 | 32.69936 | -16.77276 | 176 ft | 10 kts | 44° |
| 2026-04-15 16:49 | 32.69960 | -16.77200 | 176 ft | 11 kts | 103° |
| 2026-04-15 16:49 | 32.69929 | -16.77181 | 176 ft | 1 kts | 178° |
| 2026-04-15 16:49 | 32.69901 | -16.77179 | 176 ft | 6 kts | 178° |
| 2026-04-15 16:49 | 32.69842 | -16.77183 | 176 ft | 10 kts | 195° |
| 2026-04-15 16:50 | 32.69817 | -16.77205 | 176 ft | 0 kts | 224° |
| 2026-04-15 16:50 | 32.69816 | -16.77207 | 176 ft | 2 kts | 224° |
| 2026-04-15 16:50 | 32.69796 | -16.77231 | 176 ft | 6 kts | 226° |
| 2026-04-15 16:50 | 32.69753 | -16.77282 | 176 ft | 11 kts | 225° |
| 2026-04-15 16:51 | 32.69690 | -16.77360 | 176 ft | 15 kts | 226° |
| 2026-04-15 16:51 | 32.69612 | -16.77457 | 176 ft | 18 kts | 225° |
| 2026-04-15 16:51 | 32.69539 | -16.77550 | 176 ft | 15 kts | 227° |
| 2026-04-15 16:51 | 32.69478 | -16.77627 | 176 ft | 6 kts | 227° |
| 2026-04-15 16:52 | 32.69457 | -16.77643 | 176 ft | 4 kts | 176° |
| 2026-04-15 16:52 | 32.69429 | -16.77611 | 176 ft | 5 kts | 136° |
| 2026-04-15 16:52 | 32.69411 | -16.77593 | 176 ft | 0 kts | 137° |
| 2026-04-15 16:52 | 32.69412 | -16.77593 | 176 ft | 0 kts | 137° |
| 2026-04-15 16:56 | 32.69411 | -16.77593 | 176 ft | 0 kts | 137° |